createdAt,value
2018-04-16T00:02:04.745Z,82.70
2018-04-16T00:04:33.149Z,82.80
2018-04-16T00:07:01.613Z,82.90
2018-04-16T00:09:29.221Z,82.80
2018-04-16T00:11:56.874Z,82.70
2018-04-16T00:14:24.958Z,82.70
2018-04-16T00:16:52.621Z,82.80
2018-04-16T00:19:21.085Z,82.90
2018-04-16T00:21:48.694Z,82.80
2018-04-16T00:24:16.329Z,82.80
2018-04-16T00:26:43.987Z,83.90
2018-04-16T00:29:12.429Z,82.60
2018-04-16T00:34:52.253Z,82.80
2018-04-16T00:37:25.440Z,82.90
2018-04-16T00:39:58.663Z,82.80
2018-04-16T00:42:32.540Z,83.00
2018-04-16T00:48:12.520Z,82.70
2018-04-16T00:50:46.496Z,82.50
2018-04-16T00:53:19.741Z,83.30
2018-04-16T00:55:53.091Z,82.50
2018-04-16T00:58:26.252Z,82.50
2018-04-16T01:00:59.444Z,82.60
2018-04-16T01:03:32.573Z,82.80
2018-04-16T01:06:05.785Z,83.00
2018-04-16T01:08:39.004Z,83.20
2018-04-16T01:11:12.233Z,83.40
2018-04-16T01:13:45.420Z,83.70
2018-04-16T01:16:19.301Z,84.30
2018-04-16T01:18:52.564Z,84.20
2018-04-16T01:21:25.722Z,84.40
2018-04-16T01:23:58.908Z,84.60
2018-04-16T01:26:32.802Z,85.10
2018-04-16T01:29:05.977Z,85.00
2018-04-16T01:31:40.016Z,85.10
2018-04-16T01:37:15.717Z,85.20
2018-04-16T01:39:49.134Z,85.40
2018-04-16T01:42:22.328Z,85.30
2018-04-16T01:44:55.449Z,85.30
2018-04-16T01:47:28.768Z,85.40
2018-04-16T01:50:01.873Z,85.30
2018-04-16T01:52:35.086Z,85.30
2018-04-16T01:55:08.428Z,85.30
2018-04-16T01:57:41.551Z,85.00
2018-04-16T02:00:14.729Z,84.70
2018-04-16T02:02:48.853Z,84.20
2018-04-16T02:05:22.093Z,84.20
2018-04-16T02:07:55.334Z,84.00
2018-04-16T02:10:28.664Z,83.80
2018-04-16T02:13:02.000Z,83.60
2018-04-16T02:15:35.068Z,83.30
2018-04-16T02:18:09.185Z,83.10
2018-04-16T02:20:42.345Z,83.10
2018-04-16T02:23:15.637Z,82.50
2018-04-16T02:25:49.629Z,82.50
2018-04-16T02:28:22.904Z,82.40
2018-04-16T02:30:56.096Z,82.10
2018-04-16T02:33:29.445Z,82.10
2018-04-16T02:36:03.513Z,82.30
2018-04-16T02:38:36.732Z,82.20
2018-04-16T02:41:09.844Z,82.20
2018-04-16T02:43:43.879Z,82.50
2018-04-16T02:49:22.516Z,82.40
2018-04-16T02:51:55.713Z,82.40
2018-04-16T02:54:28.945Z,82.40
2018-04-16T02:57:02.053Z,82.50
2018-04-16T02:59:35.248Z,82.40
2018-04-16T03:02:09.249Z,82.50
2018-04-16T03:04:42.431Z,82.50
2018-04-16T03:07:15.615Z,82.60
2018-04-16T03:09:49.608Z,82.70
2018-04-16T03:12:22.848Z,82.60
2018-04-16T03:14:56.078Z,82.60
2018-04-16T03:17:29.997Z,82.10
2018-04-16T03:20:03.265Z,82.00
2018-04-16T03:22:36.608Z,81.90
2018-04-16T03:25:09.782Z,81.90
2018-04-16T03:27:44.498Z,81.80
2018-04-16T03:30:17.808Z,81.80
2018-04-16T03:32:50.961Z,81.60
2018-04-16T03:35:24.190Z,81.50
2018-04-16T03:37:57.561Z,81.60
2018-04-16T03:40:30.919Z,81.70
2018-04-16T03:43:04.177Z,81.80
2018-04-16T03:45:37.522Z,81.60
2018-04-16T03:48:10.785Z,81.70
2018-04-16T03:50:44.191Z,81.80
2018-04-16T03:53:21.749Z,81.80
2018-04-16T03:55:53.616Z,82.00
2018-04-16T03:58:21.273Z,82.00
2018-04-16T04:00:48.889Z,82.70
2018-04-16T04:03:16.549Z,82.50
2018-04-16T04:05:44.161Z,82.50
2018-04-16T04:08:11.793Z,82.70
2018-04-16T04:10:39.470Z,82.70
2018-04-16T04:13:07.154Z,82.70
2018-04-16T04:15:34.801Z,82.50
2018-04-16T04:18:02.437Z,82.50
2018-04-16T04:20:30.089Z,82.50
2018-04-16T04:23:10.378Z,82.80
2018-04-16T04:25:49.736Z,82.60
2018-04-16T04:28:30.000Z,82.90
2018-04-16T04:30:57.633Z,82.90
2018-04-16T04:33:25.237Z,83.00
2018-04-16T04:35:52.888Z,83.30
2018-04-16T04:38:21.293Z,83.70
2018-04-16T04:40:49.737Z,83.90
2018-04-16T04:43:17.433Z,83.80
2018-04-16T04:45:45.083Z,84.00
2018-04-16T04:48:13.501Z,84.40
2018-04-16T04:50:41.121Z,84.40
2018-04-16T04:53:08.754Z,84.40
2018-04-16T04:55:37.351Z,84.60
2018-04-16T04:58:05.060Z,84.50
2018-04-16T05:00:33.452Z,84.70
2018-04-16T05:03:01.837Z,84.70
2018-04-16T05:05:29.476Z,84.60
2018-04-16T05:07:57.181Z,84.80
2018-04-16T05:10:24.814Z,84.90
2018-04-16T05:12:53.197Z,85.10
2018-04-16T05:15:20.838Z,85.00
2018-04-16T05:17:48.607Z,85.20
2018-04-16T05:20:16.229Z,85.30
2018-04-16T05:22:43.877Z,85.20
2018-04-16T05:25:12.270Z,85.00
2018-04-16T05:27:39.972Z,85.00
2018-04-16T05:30:07.617Z,85.00
2018-04-16T05:32:35.293Z,85.00
2018-04-16T05:35:02.912Z,84.90
2018-04-16T05:37:30.553Z,84.90
2018-04-16T05:39:58.177Z,84.90
2018-04-16T05:42:25.895Z,84.80
2018-04-16T05:44:53.540Z,84.90
2018-04-16T05:47:21.168Z,85.10
2018-04-16T05:49:49.578Z,85.40
2018-04-16T05:55:33.215Z,85.50
2018-04-16T05:58:00.941Z,85.60
2018-04-16T06:00:28.650Z,85.90
2018-04-16T06:02:57.062Z,86.60
2018-04-16T06:05:25.481Z,86.70
2018-04-16T06:07:53.214Z,86.70
2018-04-16T06:10:20.852Z,86.70
2018-04-16T06:12:48.517Z,87.20
2018-04-16T06:15:16.910Z,87.70
2018-04-16T06:17:44.555Z,87.40
2018-04-16T06:20:12.234Z,87.50
2018-04-16T06:22:40.023Z,87.50
2018-04-16T06:25:09.258Z,87.60
2018-04-16T06:27:36.978Z,87.50
2018-04-16T06:30:04.668Z,87.70
2018-04-16T06:32:32.292Z,87.80
2018-04-16T06:35:00.701Z,87.80
2018-04-16T06:37:29.110Z,87.90
2018-04-16T06:39:56.824Z,87.80
2018-04-16T06:42:24.488Z,87.80
2018-04-16T06:44:52.105Z,87.70
2018-04-16T06:47:19.775Z,87.50
2018-04-16T06:49:47.401Z,87.60
2018-04-16T06:52:15.066Z,87.60
2018-04-16T06:54:42.714Z,87.50
2018-04-16T06:57:11.149Z,87.40
2018-04-16T06:59:38.794Z,87.30
2018-04-16T07:02:07.219Z,87.40
2018-04-16T07:04:35.613Z,87.40
2018-04-16T07:07:04.085Z,87.60
2018-04-16T07:09:31.734Z,87.40
2018-04-16T07:11:59.412Z,87.50
2018-04-16T07:14:27.502Z,87.50
2018-04-16T07:16:55.170Z,87.50
2018-04-16T07:19:23.584Z,87.40
2018-04-16T07:21:52.046Z,87.30
2018-04-16T07:24:19.740Z,87.30
2018-04-16T07:26:47.353Z,87.20
2018-04-16T07:29:15.791Z,87.00
2018-04-16T07:31:43.422Z,87.00
2018-04-16T07:34:11.073Z,86.90
2018-04-16T07:36:38.725Z,86.80
2018-04-16T07:39:07.190Z,86.70
2018-04-16T07:41:34.838Z,86.70
2018-04-16T07:44:02.514Z,86.40
2018-04-16T07:46:30.186Z,86.10
2018-04-16T07:48:58.605Z,85.80
2018-04-16T07:51:26.284Z,85.70
2018-04-16T07:53:54.650Z,85.20
2018-04-16T07:56:22.443Z,85.20
2018-04-16T07:58:50.114Z,84.90
2018-04-16T08:01:17.764Z,84.60
2018-04-16T08:03:46.173Z,84.20
2018-04-16T08:06:14.578Z,84.00
2018-04-16T08:08:42.299Z,83.90
2018-04-16T08:11:09.989Z,83.60
2018-04-16T08:13:37.696Z,83.60
2018-04-16T08:16:05.431Z,83.40
2018-04-16T08:18:33.060Z,83.30
2018-04-16T08:21:00.698Z,83.30
2018-04-16T08:23:29.259Z,83.30
2018-04-16T08:25:57.961Z,83.10
2018-04-16T08:28:26.369Z,82.80
2018-04-16T08:30:54.795Z,82.30
2018-04-16T08:33:22.432Z,82.40
2018-04-16T08:35:50.122Z,82.40
2018-04-16T08:38:17.741Z,83.00
2018-04-16T08:40:45.396Z,81.80
2018-04-16T08:43:13.072Z,81.60
2018-04-16T08:45:41.444Z,81.00
2018-04-16T08:48:09.100Z,80.80
2018-04-16T08:50:36.741Z,80.40
2018-04-16T08:53:05.171Z,79.60
2018-04-16T08:55:32.862Z,79.60
2018-04-16T08:58:00.488Z,79.40
2018-04-16T09:00:28.157Z,78.80
2018-04-16T09:02:55.777Z,78.40
2018-04-16T09:05:23.467Z,78.20
2018-04-16T09:07:51.180Z,78.00
2018-04-16T09:10:18.843Z,77.70
2018-04-16T09:12:46.521Z,76.70
2018-04-16T09:15:14.165Z,76.90
2018-04-16T09:17:41.845Z,76.50
2018-04-16T09:20:10.234Z,76.10
2018-04-16T09:22:37.864Z,76.00
2018-04-16T09:25:05.493Z,75.70
2018-04-16T09:27:33.195Z,75.60
2018-04-16T09:30:00.797Z,75.20
2018-04-16T09:32:28.453Z,74.70
2018-04-16T09:34:56.106Z,74.20
2018-04-16T09:37:23.745Z,73.70
2018-04-16T09:39:52.179Z,73.70
2018-04-16T09:42:19.994Z,73.70
2018-04-16T09:44:47.677Z,73.60
2018-04-16T09:47:15.314Z,73.40
2018-04-16T09:49:43.749Z,73.20
2018-04-16T09:52:11.410Z,73.20
2018-04-16T09:54:39.824Z,71.90
2018-04-16T09:57:08.247Z,72.60
2018-04-16T09:59:35.880Z,72.40
2018-04-16T10:02:09.177Z,72.20
2018-04-16T10:04:36.821Z,71.80
2018-04-16T10:07:05.265Z,71.80
2018-04-16T10:09:32.908Z,71.70
2018-04-16T10:12:00.569Z,71.50
2018-04-16T10:14:28.226Z,71.30
2018-04-16T10:16:55.894Z,71.20
2018-04-16T10:19:23.529Z,71.00
2018-04-16T10:21:51.190Z,70.90
2018-04-16T10:24:18.842Z,70.50
2018-04-16T10:26:47.249Z,70.20
2018-04-16T10:29:14.974Z,70.20
2018-04-16T10:31:43.459Z,69.90
2018-04-16T10:34:11.193Z,69.90
2018-04-16T10:36:38.893Z,70.00
2018-04-16T10:39:06.574Z,70.20
2018-04-16T10:41:34.230Z,70.20
2018-04-16T10:44:01.907Z,70.20
2018-04-16T10:46:29.600Z,70.20
2018-04-16T10:48:57.238Z,69.80
2018-04-16T10:51:25.660Z,69.50
2018-04-16T10:53:53.305Z,69.50
2018-04-16T10:56:20.981Z,69.30
2018-04-16T10:58:48.613Z,69.40
2018-04-16T11:01:17.065Z,69.50
2018-04-16T11:03:44.730Z,69.50
2018-04-16T11:06:12.428Z,69.10
2018-04-16T11:08:40.037Z,69.20
2018-04-16T11:11:07.689Z,69.10
2018-04-16T11:13:35.390Z,69.00
2018-04-16T11:16:03.014Z,68.40
2018-04-16T11:18:30.684Z,68.00
2018-04-16T11:20:58.529Z,67.90
2018-04-16T11:23:26.229Z,67.70
2018-04-16T11:25:53.847Z,67.30
2018-04-16T11:28:21.505Z,67.30
2018-04-16T11:30:49.176Z,67.30
2018-04-16T11:33:17.634Z,67.00
2018-04-16T11:35:46.177Z,66.60
2018-04-16T11:38:14.594Z,66.50
2018-04-16T11:40:43.050Z,66.20
2018-04-16T11:43:10.673Z,66.20
2018-04-16T11:45:39.137Z,65.90
2018-04-16T11:48:06.773Z,65.80
2018-04-16T11:50:35.184Z,65.60
2018-04-16T11:53:02.845Z,65.50
2018-04-16T11:55:30.562Z,65.20
2018-04-16T11:57:58.960Z,65.30
2018-04-16T12:00:27.409Z,65.20
2018-04-16T12:02:55.034Z,65.00
2018-04-16T12:05:22.691Z,64.90
2018-04-16T12:07:50.350Z,64.80
2018-04-16T12:10:17.993Z,64.30
2018-04-16T12:12:45.652Z,64.70
2018-04-16T12:15:13.289Z,64.50
2018-04-16T12:17:40.995Z,64.30
2018-04-16T12:20:08.638Z,64.10
2018-04-16T12:22:36.337Z,63.70
2018-04-16T12:25:04.015Z,63.40
2018-04-16T12:27:31.642Z,64.20
2018-04-16T12:29:59.279Z,63.30
2018-04-16T12:32:26.945Z,63.00
2018-04-16T12:34:54.624Z,62.70
2018-04-16T12:37:22.262Z,62.30
2018-04-16T12:39:50.703Z,61.90
2018-04-16T12:42:18.377Z,61.90
2018-04-16T12:44:46.793Z,61.20
2018-04-16T12:47:14.465Z,61.20
2018-04-16T12:49:42.837Z,60.80
2018-04-16T12:52:10.466Z,60.80
2018-04-16T12:54:39.011Z,59.90
2018-04-16T12:57:06.646Z,59.80
2018-04-16T12:59:34.768Z,59.40
2018-04-16T13:02:02.433Z,58.90
2018-04-16T13:04:30.090Z,58.90
2018-04-16T13:06:57.790Z,58.70
2018-04-16T13:09:25.429Z,58.10
2018-04-16T13:11:53.083Z,57.80
2018-04-16T13:14:20.711Z,57.90
2018-04-16T13:16:48.390Z,57.80
2018-04-16T13:19:16.069Z,57.50
2018-04-16T13:21:44.468Z,56.90
2018-04-16T13:24:12.890Z,55.90
2018-04-16T13:26:40.497Z,55.90
2018-04-16T13:29:08.166Z,55.30
2018-04-16T13:31:35.811Z,55.10
2018-04-16T13:34:03.454Z,55.10
2018-04-16T13:36:31.137Z,55.20
2018-04-16T13:38:58.798Z,54.90
2018-04-16T13:41:27.163Z,54.10
2018-04-16T13:43:54.849Z,54.10
2018-04-16T13:46:22.510Z,54.00
2018-04-16T13:48:50.139Z,53.90
2018-04-16T13:51:18.595Z,53.70
2018-04-16T13:53:46.222Z,53.60
2018-04-16T13:56:13.873Z,53.40
2018-04-16T13:58:41.480Z,54.30
2018-04-16T14:01:09.138Z,53.10
2018-04-16T14:03:36.780Z,52.50
2018-04-16T14:06:05.217Z,52.10
2018-04-16T14:08:32.946Z,52.10
2018-04-16T14:11:00.594Z,51.90
2018-04-16T14:13:28.246Z,51.80
2018-04-16T14:15:56.653Z,52.10
2018-04-16T14:18:25.097Z,52.10
2018-04-16T14:20:52.730Z,52.10
2018-04-16T14:23:20.419Z,52.00
2018-04-16T14:25:48.075Z,51.70
2018-04-16T14:28:15.789Z,51.70
2018-04-16T14:30:43.430Z,51.60
2018-04-16T14:33:11.870Z,51.00
2018-04-16T14:35:40.314Z,50.00
2018-04-16T14:38:08.010Z,50.00
2018-04-16T14:40:35.693Z,49.30
2018-04-16T14:43:03.411Z,48.80
2018-04-16T14:45:31.057Z,47.90
2018-04-16T14:47:58.690Z,47.40
2018-04-16T14:50:26.353Z,47.50
2018-04-16T14:52:53.982Z,47.10
2018-04-16T14:55:41.296Z,47.00
2018-04-16T14:58:08.937Z,46.70
2018-04-16T15:00:36.601Z,46.00
2018-04-16T15:03:04.289Z,45.60
2018-04-16T15:05:32.515Z,45.40
2018-04-16T15:08:00.150Z,44.80
2018-04-16T15:10:27.842Z,43.90
2018-04-16T15:12:55.525Z,43.70
2018-04-16T15:15:23.181Z,43.10
2018-04-16T15:17:50.872Z,42.80
2018-04-16T15:20:19.277Z,43.30
2018-04-16T15:22:47.698Z,43.50
2018-04-16T15:25:15.333Z,43.50
2018-04-16T15:27:42.958Z,43.50
2018-04-16T15:30:11.429Z,44.30
2018-04-16T15:32:39.074Z,44.20
2018-04-16T15:35:06.801Z,44.70
2018-04-16T15:37:34.448Z,45.00
2018-04-16T15:40:02.151Z,45.70
2018-04-16T15:42:29.825Z,46.40
2018-04-16T15:44:57.519Z,47.40
2018-04-16T15:47:25.191Z,48.90
2018-04-16T15:49:53.149Z,49.60
2018-04-16T15:52:20.823Z,50.20
2018-04-16T15:54:48.442Z,50.80
2018-04-16T15:57:16.890Z,51.40
2018-04-16T15:59:44.525Z,51.40
2018-04-16T16:02:12.590Z,51.60
2018-04-16T16:04:40.277Z,51.70
2018-04-16T16:07:08.172Z,51.70
2018-04-16T16:09:36.677Z,51.40
2018-04-16T16:12:04.418Z,51.40
2018-04-16T16:14:32.208Z,51.40
2018-04-16T16:16:59.857Z,51.20
2018-04-16T16:19:27.514Z,51.20
2018-04-16T16:21:55.162Z,51.30
2018-04-16T16:24:22.878Z,51.40
2018-04-16T16:26:50.578Z,50.90
2018-04-16T16:29:18.201Z,50.40
2018-04-16T16:31:45.868Z,50.20
2018-04-16T16:34:13.522Z,49.90
2018-04-16T16:36:41.204Z,49.90
2018-04-16T16:39:08.859Z,50.10
2018-04-16T16:41:37.294Z,49.90
2018-04-16T16:44:04.924Z,49.90
2018-04-16T16:46:33.360Z,49.60
2018-04-16T16:49:01.009Z,49.60
2018-04-16T16:51:28.654Z,49.50
2018-04-16T16:53:56.292Z,49.40
2018-04-16T16:56:23.960Z,49.70
2018-04-16T16:58:52.389Z,50.40
2018-04-16T17:01:20.845Z,51.30
2018-04-16T17:03:48.612Z,51.30
2018-04-16T17:06:16.291Z,52.10
2018-04-16T17:08:44.088Z,52.80
2018-04-16T17:11:11.829Z,53.40
2018-04-16T17:13:39.511Z,53.20
2018-04-16T17:16:08.178Z,52.80
2018-04-16T17:18:36.667Z,52.70
2018-04-16T17:21:04.353Z,52.70
2018-04-16T17:23:31.997Z,52.90
2018-04-16T17:25:59.706Z,52.90
2018-04-16T17:28:27.357Z,52.70
2018-04-16T17:30:55.018Z,52.60
2018-04-16T17:33:22.656Z,52.60
2018-04-16T17:35:50.313Z,52.70
2018-04-16T17:38:17.984Z,53.00
2018-04-16T17:40:45.629Z,53.50
2018-04-16T17:43:13.298Z,54.00
2018-04-16T17:45:41.719Z,55.30
2018-04-16T17:48:09.367Z,55.20
2018-04-16T17:50:37.007Z,55.60
2018-04-16T17:53:04.693Z,56.30
2018-04-16T17:55:32.324Z,56.90
2018-04-16T17:57:59.921Z,57.70
2018-04-16T18:00:27.578Z,58.20
2018-04-16T18:02:55.230Z,58.70
2018-04-16T18:05:22.912Z,59.30
2018-04-16T18:07:50.559Z,59.80
2018-04-16T18:10:18.245Z,60.30
2018-04-16T18:12:45.885Z,61.10
2018-04-16T18:15:13.574Z,61.70
2018-04-16T18:17:41.246Z,61.70
2018-04-16T18:20:08.859Z,62.80
2018-04-16T18:22:36.546Z,63.50
2018-04-16T18:25:04.168Z,64.00
2018-04-16T18:27:31.834Z,64.30
2018-04-16T18:29:59.473Z,64.80
2018-04-16T18:32:29.769Z,65.40
2018-04-16T18:34:58.530Z,65.40
2018-04-16T18:37:26.186Z,65.80
2018-04-16T18:39:54.693Z,66.50
2018-04-16T18:42:23.088Z,66.90
2018-04-16T18:44:50.736Z,66.90
2018-04-16T18:47:18.377Z,67.00
2018-04-16T18:49:46.112Z,67.50
2018-04-16T18:52:13.743Z,67.70
2018-04-16T18:54:41.979Z,68.00
2018-04-16T18:57:09.653Z,68.40
2018-04-16T18:59:38.088Z,69.20
2018-04-16T19:02:06.854Z,69.20
2018-04-16T19:04:35.065Z,69.50
2018-04-16T19:09:56.494Z,70.10
2018-04-16T19:12:24.931Z,69.90
2018-04-16T19:14:53.298Z,70.70
2018-04-16T19:17:21.022Z,70.60
2018-04-16T19:19:49.393Z,71.30
2018-04-16T19:22:17.038Z,71.20
2018-04-16T19:24:44.668Z,71.60
2018-04-16T19:27:17.922Z,71.80
2018-04-16T19:29:46.350Z,72.10
2018-04-16T19:32:13.998Z,72.10
2018-04-16T19:34:47.347Z,72.30
2018-04-16T19:37:15.016Z,72.60
2018-04-16T19:39:42.699Z,72.80
2018-04-16T19:42:16.070Z,73.20
2018-04-16T19:44:43.720Z,73.40
2018-04-16T19:47:12.331Z,73.70
2018-04-16T19:52:42.004Z,73.90
2018-04-16T19:55:09.690Z,73.90
2018-04-16T19:57:42.975Z,74.00
2018-04-16T20:00:10.957Z,74.40
2018-04-16T20:02:44.323Z,74.70
2018-04-16T20:05:12.258Z,74.80
2018-04-16T20:07:39.942Z,75.00
2018-04-16T20:10:07.739Z,75.10
2018-04-16T20:12:35.356Z,75.50
2018-04-16T20:15:03.147Z,75.60
2018-04-16T20:17:30.867Z,75.80
2018-04-16T20:19:58.536Z,76.10
2018-04-16T20:22:26.404Z,76.20
2018-04-16T20:24:54.535Z,76.40
2018-04-16T20:27:22.288Z,76.50
2018-04-16T20:29:50.030Z,76.70
2018-04-16T20:32:18.083Z,76.80
2018-04-16T20:34:45.938Z,77.10
2018-04-16T20:37:13.948Z,77.20
2018-04-16T20:39:42.470Z,77.10
2018-04-16T20:42:10.638Z,77.70
2018-04-16T20:44:38.450Z,77.80
2018-04-16T20:47:06.800Z,77.80
2018-04-16T20:49:34.406Z,77.80
2018-04-16T20:52:01.985Z,78.00
2018-04-16T20:54:29.683Z,78.10
2018-04-16T20:56:57.252Z,78.40
2018-04-16T20:59:24.857Z,78.50
2018-04-16T21:01:52.636Z,78.70
2018-04-16T21:04:20.292Z,79.00
2018-04-16T21:06:47.887Z,78.90
2018-04-16T21:09:15.456Z,78.90
2018-04-16T21:11:43.057Z,78.90
2018-04-16T21:14:10.655Z,79.30
2018-04-16T21:16:38.301Z,79.70
2018-04-16T21:19:05.934Z,79.80
2018-04-16T21:21:33.550Z,79.90
2018-04-16T21:24:01.969Z,80.40
2018-04-16T21:26:29.627Z,80.30
2018-04-16T21:28:57.281Z,80.60
2018-04-16T21:31:24.909Z,80.80
2018-04-16T21:33:53.322Z,80.90
2018-04-16T21:36:21.753Z,80.80
2018-04-16T21:38:49.355Z,80.80
2018-04-16T21:41:16.973Z,80.80
2018-04-16T21:43:45.377Z,80.90
2018-04-16T21:46:13.082Z,80.90
2018-04-16T21:48:40.692Z,80.90
2018-04-16T21:51:09.092Z,81.10
2018-04-16T21:53:37.597Z,81.00
2018-04-16T21:56:05.960Z,81.10
2018-04-16T21:58:33.528Z,81.00
2018-04-16T22:01:01.124Z,81.20
2018-04-16T22:03:28.701Z,81.20
2018-04-16T22:05:56.341Z,81.20
2018-04-16T22:08:24.742Z,81.30
2018-04-16T22:10:53.175Z,81.40
2018-04-16T22:13:20.830Z,81.30
2018-04-16T22:15:48.458Z,81.40
2018-04-16T22:18:16.927Z,81.80
2018-04-16T22:20:44.573Z,81.60
2018-04-16T22:23:13.073Z,82.00
2018-04-16T22:25:40.750Z,82.00
2018-04-16T22:48:20.664Z,83.50
2018-04-16T22:50:48.305Z,83.60
2018-04-16T22:53:15.933Z,83.70
2018-04-16T22:55:43.591Z,83.90
2018-04-16T22:58:11.993Z,84.30
2018-04-16T23:00:40.405Z,85.00
2018-04-16T23:03:08.826Z,84.40
2018-04-16T23:05:36.484Z,84.40
2018-04-16T23:08:04.904Z,85.30
2018-04-16T23:10:33.336Z,84.60
2018-04-16T23:13:00.979Z,84.60
2018-04-16T23:15:28.612Z,84.80
2018-04-16T23:17:56.281Z,85.10
2018-04-16T23:20:24.689Z,84.90
2018-04-16T23:22:53.047Z,84.90
2018-04-16T23:25:20.727Z,84.90
2018-04-16T23:27:48.373Z,84.80
2018-04-16T23:30:16.017Z,84.80
2018-04-16T23:32:43.678Z,84.80
2018-04-16T23:35:11.282Z,84.80
2018-04-16T23:37:38.937Z,84.80
2018-04-16T23:40:06.547Z,84.70
2018-04-16T23:42:34.207Z,84.80
2018-04-16T23:45:01.910Z,84.80
2018-04-16T23:47:29.540Z,84.80
2018-04-16T23:49:57.174Z,84.90
2018-04-16T23:52:24.779Z,85.10
2018-04-16T23:54:53.189Z,85.40
2018-04-16T23:57:20.919Z,85.40
2018-04-16T23:59:48.601Z,85.40
